sensor_id;sensor_type;location;lat;lon;timestamp;P1;durP1;ratioP1;P2;durP2;ratioP2
19733;SDS011;10018;51.230;7.860;2022-10-01T00:00:20;5.80;;;3.40;;
19733;SDS011;10018;51.230;7.860;2022-10-01T00:02:46;5.87;;;3.40;;
19733;SDS011;10018;51.230;7.860;2022-10-01T00:05:11;5.83;;;3.47;;
19733;SDS011;10018;51.230;7.860;2022-10-01T00:07:41;6.93;;;3.93;;
19733;SDS011;10018;51.230;7.860;2022-10-01T00:10:09;7.13;;;3.70;;
19733;SDS011;10018;51.230;7.860;2022-10-01T00:12:36;6.73;;;3.73;;
19733;SDS011;10018;51.230;7.860;2022-10-01T00:15:02;6.33;;;3.90;;
19733;SDS011;10018;51.230;7.860;2022-10-01T00:17:33;6.87;;;3.90;;
19733;SDS011;10018;51.230;7.860;2022-10-01T00:20:02;6.13;;;3.57;;
19733;SDS011;10018;51.230;7.860;2022-10-01T00:22:29;5.07;;;3.60;;
19733;SDS011;10018;51.230;7.860;2022-10-01T00:24:56;8.33;;;3.73;;
19733;SDS011;10018;51.230;7.860;2022-10-01T00:27:23;8.00;;;3.73;;
19733;SDS011;10018;51.230;7.860;2022-10-01T00:29:49;7.17;;;3.40;;
19733;SDS011;10018;51.230;7.860;2022-10-01T00:32:15;5.33;;;4.03;;
19733;SDS011;10018;51.230;7.860;2022-10-01T00:34:41;5.17;;;3.50;;
19733;SDS011;10018;51.230;7.860;2022-10-01T00:37:06;6.63;;;4.10;;
19733;SDS011;10018;51.230;7.860;2022-10-01T00:39:34;8.00;;;4.00;;
19733;SDS011;10018;51.230;7.860;2022-10-01T00:42:00;5.57;;;3.60;;
19733;SDS011;10018;51.230;7.860;2022-10-01T00:44:35;7.73;;;3.90;;
19733;SDS011;10018;51.230;7.860;2022-10-01T00:47:03;9.13;;;4.07;;
19733;SDS011;10018;51.230;7.860;2022-10-01T00:49:44;8.63;;;3.80;;
19733;SDS011;10018;51.230;7.860;2022-10-01T00:52:13;8.33;;;3.77;;
19733;SDS011;10018;51.230;7.860;2022-10-01T00:54:43;5.23;;;3.87;;
19733;SDS011;10018;51.230;7.860;2022-10-01T00:57:15;5.73;;;3.83;;
19733;SDS011;10018;51.230;7.860;2022-10-01T00:59:42;6.63;;;3.40;;
19733;SDS011;10018;51.230;7.860;2022-10-01T01:02:09;5.40;;;4.03;;
19733;SDS011;10018;51.230;7.860;2022-10-01T01:04:35;5.90;;;3.97;;
19733;SDS011;10018;51.230;7.860;2022-10-01T01:07:02;7.40;;;4.17;;
19733;SDS011;10018;51.230;7.860;2022-10-01T01:09:30;6.77;;;4.00;;
19733;SDS011;10018;51.230;7.860;2022-10-01T01:12:23;7.40;;;3.90;;
19733;SDS011;10018;51.230;7.860;2022-10-01T01:17:30;7.40;;;4.53;;
19733;SDS011;10018;51.230;7.860;2022-10-01T01:25:48;5.53;;;3.57;;
19733;SDS011;10018;51.230;7.860;2022-10-01T01:28:44;5.80;;;3.80;;
19733;SDS011;10018;51.230;7.860;2022-10-01T01:31:16;8.33;;;3.93;;
19733;SDS011;10018;51.230;7.860;2022-10-01T01:33:49;8.10;;;4.00;;
19733;SDS011;10018;51.230;7.860;2022-10-01T01:36:19;9.60;;;4.30;;
19733;SDS011;10018;51.230;7.860;2022-10-01T01:38:52;7.20;;;4.47;;
19733;SDS011;10018;51.230;7.860;2022-10-01T01:41:23;7.93;;;4.43;;
19733;SDS011;10018;51.230;7.860;2022-10-01T01:43:53;6.93;;;4.07;;
19733;SDS011;10018;51.230;7.860;2022-10-01T01:46:23;7.70;;;3.80;;
19733;SDS011;10018;51.230;7.860;2022-10-01T01:48:55;6.10;;;4.13;;
19733;SDS011;10018;51.230;7.860;2022-10-01T01:54:12;7.40;;;4.30;;
19733;SDS011;10018;51.230;7.860;2022-10-01T01:56:38;5.70;;;3.77;;
19733;SDS011;10018;51.230;7.860;2022-10-01T01:59:04;8.00;;;4.17;;
19733;SDS011;10018;51.230;7.860;2022-10-01T02:01:33;8.03;;;3.73;;
19733;SDS011;10018;51.230;7.860;2022-10-01T02:04:02;6.80;;;3.40;;
19733;SDS011;10018;51.230;7.860;2022-10-01T02:11:49;6.33;;;4.10;;
19733;SDS011;10018;51.230;7.860;2022-10-01T02:14:34;8.83;;;4.03;;
19733;SDS011;10018;51.230;7.860;2022-10-01T02:17:15;7.97;;;4.17;;
19733;SDS011;10018;51.230;7.860;2022-10-01T02:20:00;6.30;;;4.20;;
19733;SDS011;10018;51.230;7.860;2022-10-01T02:22:48;6.67;;;4.20;;
19733;SDS011;10018;51.230;7.860;2022-10-01T02:25:17;5.53;;;3.77;;
19733;SDS011;10018;51.230;7.860;2022-10-01T02:27:52;10.60;;;4.37;;
19733;SDS011;10018;51.230;7.860;2022-10-01T02:30:26;7.50;;;4.80;;
19733;SDS011;10018;51.230;7.860;2022-10-01T02:32:55;7.70;;;4.83;;
19733;SDS011;10018;51.230;7.860;2022-10-01T02:35:23;5.90;;;4.53;;
19733;SDS011;10018;51.230;7.860;2022-10-01T02:37:52;7.23;;;4.50;;
19733;SDS011;10018;51.230;7.860;2022-10-01T02:40:21;7.80;;;4.83;;
19733;SDS011;10018;51.230;7.860;2022-10-01T02:42:51;7.13;;;4.80;;
19733;SDS011;10018;51.230;7.860;2022-10-01T02:45:22;10.77;;;5.30;;
19733;SDS011;10018;51.230;7.860;2022-10-01T02:47:52;7.40;;;4.67;;
19733;SDS011;10018;51.230;7.860;2022-10-01T02:50:50;10.43;;;5.03;;
19733;SDS011;10018;51.230;7.860;2022-10-01T02:55:48;7.43;;;5.00;;
19733;SDS011;10018;51.230;7.860;2022-10-01T02:58:16;6.60;;;4.77;;
19733;SDS011;10018;51.230;7.860;2022-10-01T03:00:43;8.37;;;5.20;;
19733;SDS011;10018;51.230;7.860;2022-10-01T03:03:08;9.73;;;5.47;;
19733;SDS011;10018;51.230;7.860;2022-10-01T03:05:34;10.60;;;5.63;;
19733;SDS011;10018;51.230;7.860;2022-10-01T03:08:00;6.10;;;5.00;;
19733;SDS011;10018;51.230;7.860;2022-10-01T03:10:25;7.50;;;5.27;;
19733;SDS011;10018;51.230;7.860;2022-10-01T03:12:51;12.17;;;4.80;;
19733;SDS011;10018;51.230;7.860;2022-10-01T03:15:17;6.73;;;4.97;;
19733;SDS011;10018;51.230;7.860;2022-10-01T03:17:43;8.07;;;5.23;;
19733;SDS011;10018;51.230;7.860;2022-10-01T03:20:09;9.27;;;5.30;;
19733;SDS011;10018;51.230;7.860;2022-10-01T03:22:36;7.80;;;5.60;;
19733;SDS011;10018;51.230;7.860;2022-10-01T03:25:02;7.63;;;4.80;;
19733;SDS011;10018;51.230;7.860;2022-10-01T03:27:28;7.60;;;5.00;;
19733;SDS011;10018;51.230;7.860;2022-10-01T03:29:53;7.07;;;5.53;;
19733;SDS011;10018;51.230;7.860;2022-10-01T03:32:19;8.07;;;5.13;;
19733;SDS011;10018;51.230;7.860;2022-10-01T03:34:44;8.07;;;4.90;;
19733;SDS011;10018;51.230;7.860;2022-10-01T03:37:11;8.43;;;4.97;;
19733;SDS011;10018;51.230;7.860;2022-10-01T03:39:36;7.70;;;4.70;;
19733;SDS011;10018;51.230;7.860;2022-10-01T03:42:02;7.87;;;5.07;;
19733;SDS011;10018;51.230;7.860;2022-10-01T03:44:29;7.27;;;5.17;;
19733;SDS011;10018;51.230;7.860;2022-10-01T03:46:55;5.63;;;4.47;;
19733;SDS011;10018;51.230;7.860;2022-10-01T03:49:21;7.43;;;4.57;;
19733;SDS011;10018;51.230;7.860;2022-10-01T03:51:47;8.03;;;4.73;;
19733;SDS011;10018;51.230;7.860;2022-10-01T03:54:12;6.53;;;4.93;;
19733;SDS011;10018;51.230;7.860;2022-10-01T03:56:38;8.53;;;5.10;;
19733;SDS011;10018;51.230;7.860;2022-10-01T03:59:07;7.63;;;4.80;;
19733;SDS011;10018;51.230;7.860;2022-10-01T04:01:33;8.03;;;4.93;;
19733;SDS011;10018;51.230;7.860;2022-10-01T04:03:59;5.73;;;3.97;;
19733;SDS011;10018;51.230;7.860;2022-10-01T04:06:25;6.50;;;3.83;;
19733;SDS011;10018;51.230;7.860;2022-10-01T04:08:50;5.00;;;3.90;;
19733;SDS011;10018;51.230;7.860;2022-10-01T04:11:16;5.33;;;4.23;;
19733;SDS011;10018;51.230;7.860;2022-10-01T04:13:41;4.77;;;3.80;;
19733;SDS011;10018;51.230;7.860;2022-10-01T04:16:07;6.17;;;4.50;;
19733;SDS011;10018;51.230;7.860;2022-10-01T04:18:33;6.60;;;4.07;;
19733;SDS011;10018;51.230;7.860;2022-10-01T04:20:59;5.40;;;3.77;;
19733;SDS011;10018;51.230;7.860;2022-10-01T04:23:24;5.00;;;3.50;;
19733;SDS011;10018;51.230;7.860;2022-10-01T04:25:50;8.03;;;3.77;;
19733;SDS011;10018;51.230;7.860;2022-10-01T04:28:16;5.13;;;3.57;;
19733;SDS011;10018;51.230;7.860;2022-10-01T04:30:42;5.70;;;3.63;;
19733;SDS011;10018;51.230;7.860;2022-10-01T04:33:12;4.70;;;3.43;;
19733;SDS011;10018;51.230;7.860;2022-10-01T04:35:39;5.40;;;3.07;;
19733;SDS011;10018;51.230;7.860;2022-10-01T04:38:06;4.13;;;2.80;;
19733;SDS011;10018;51.230;7.860;2022-10-01T04:40:36;3.77;;;2.70;;
19733;SDS011;10018;51.230;7.860;2022-10-01T04:43:02;8.97;;;2.90;;
19733;SDS011;10018;51.230;7.860;2022-10-01T04:45:29;7.23;;;2.67;;
19733;SDS011;10018;51.230;7.860;2022-10-01T04:47:54;3.57;;;2.60;;
19733;SDS011;10018;51.230;7.860;2022-10-01T04:50:21;4.27;;;2.80;;
19733;SDS011;10018;51.230;7.860;2022-10-01T04:52:48;5.33;;;2.60;;
19733;SDS011;10018;51.230;7.860;2022-10-01T04:55:15;3.40;;;2.20;;
19733;SDS011;10018;51.230;7.860;2022-10-01T04:57:41;3.20;;;2.20;;
19733;SDS011;10018;51.230;7.860;2022-10-01T05:00:08;3.47;;;2.17;;
19733;SDS011;10018;51.230;7.860;2022-10-01T05:02:36;4.27;;;2.50;;
19733;SDS011;10018;51.230;7.860;2022-10-01T05:05:02;3.77;;;2.60;;
19733;SDS011;10018;51.230;7.860;2022-10-01T05:07:30;5.63;;;2.30;;
19733;SDS011;10018;51.230;7.860;2022-10-01T05:09:56;4.07;;;2.10;;
19733;SDS011;10018;51.230;7.860;2022-10-01T05:12:22;3.10;;;2.03;;
19733;SDS011;10018;51.230;7.860;2022-10-01T05:14:49;4.10;;;2.33;;
19733;SDS011;10018;51.230;7.860;2022-10-01T05:17:18;2.87;;;1.70;;
19733;SDS011;10018;51.230;7.860;2022-10-01T05:19:44;2.30;;;1.63;;
19733;SDS011;10018;51.230;7.860;2022-10-01T05:22:10;2.50;;;1.60;;
19733;SDS011;10018;51.230;7.860;2022-10-01T05:24:36;3.30;;;1.87;;
19733;SDS011;10018;51.230;7.860;2022-10-01T05:27:02;2.33;;;1.50;;
19733;SDS011;10018;51.230;7.860;2022-10-01T05:29:27;2.77;;;1.60;;
19733;SDS011;10018;51.230;7.860;2022-10-01T05:31:53;2.33;;;1.50;;
19733;SDS011;10018;51.230;7.860;2022-10-01T05:34:18;3.30;;;1.80;;
19733;SDS011;10018;51.230;7.860;2022-10-01T05:36:44;2.80;;;2.00;;
19733;SDS011;10018;51.230;7.860;2022-10-01T05:39:09;2.13;;;1.37;;
19733;SDS011;10018;51.230;7.860;2022-10-01T05:41:35;1.60;;;1.03;;
19733;SDS011;10018;51.230;7.860;2022-10-01T05:44:02;1.33;;;0.97;;
19733;SDS011;10018;51.230;7.860;2022-10-01T05:46:27;4.23;;;2.27;;
19733;SDS011;10018;51.230;7.860;2022-10-01T05:48:53;1.33;;;1.00;;
19733;SDS011;10018;51.230;7.860;2022-10-01T05:51:18;1.70;;;1.00;;
19733;SDS011;10018;51.230;7.860;2022-10-01T05:53:44;2.00;;;1.30;;
19733;SDS011;10018;51.230;7.860;2022-10-01T05:56:12;1.60;;;0.93;;
19733;SDS011;10018;51.230;7.860;2022-10-01T05:58:38;4.60;;;1.63;;
19733;SDS011;10018;51.230;7.860;2022-10-01T06:01:03;2.63;;;1.00;;
19733;SDS011;10018;51.230;7.860;2022-10-01T06:03:29;1.70;;;1.10;;
19733;SDS011;10018;51.230;7.860;2022-10-01T06:05:55;2.83;;;1.57;;
19733;SDS011;10018;51.230;7.860;2022-10-01T06:08:21;2.30;;;1.03;;
19733;SDS011;10018;51.230;7.860;2022-10-01T06:10:47;1.93;;;1.10;;
19733;SDS011;10018;51.230;7.860;2022-10-01T06:13:13;1.57;;;0.90;;
19733;SDS011;10018;51.230;7.860;2022-10-01T06:15:44;2.60;;;1.67;;
19733;SDS011;10018;51.230;7.860;2022-10-01T06:18:11;4.47;;;1.63;;
19733;SDS011;10018;51.230;7.860;2022-10-01T06:20:38;1.00;;;0.80;;
19733;SDS011;10018;51.230;7.860;2022-10-01T06:23:05;0.97;;;0.77;;
19733;SDS011;10018;51.230;7.860;2022-10-01T06:25:34;3.00;;;1.00;;
19733;SDS011;10018;51.230;7.860;2022-10-01T06:28:01;2.70;;;1.00;;
19733;SDS011;10018;51.230;7.860;2022-10-01T06:30:27;7.53;;;5.00;;
19733;SDS011;10018;51.230;7.860;2022-10-01T06:33:00;2.20;;;1.20;;
19733;SDS011;10018;51.230;7.860;2022-10-01T06:35:27;1.70;;;1.10;;
19733;SDS011;10018;51.230;7.860;2022-10-01T06:37:54;2.03;;;1.10;;
19733;SDS011;10018;51.230;7.860;2022-10-01T06:40:19;1.33;;;0.60;;
19733;SDS011;10018;51.230;7.860;2022-10-01T06:42:46;2.67;;;1.60;;
19733;SDS011;10018;51.230;7.860;2022-10-01T06:45:12;5.83;;;4.83;;
19733;SDS011;10018;51.230;7.860;2022-10-01T06:47:38;2.23;;;1.30;;
19733;SDS011;10018;51.230;7.860;2022-10-01T06:50:04;2.13;;;1.13;;
19733;SDS011;10018;51.230;7.860;2022-10-01T06:52:29;2.43;;;0.90;;
19733;SDS011;10018;51.230;7.860;2022-10-01T06:55:14;1.57;;;0.60;;
19733;SDS011;10018;51.230;7.860;2022-10-01T06:57:52;2.97;;;1.83;;
19733;SDS011;10018;51.230;7.860;2022-10-01T07:00:19;4.70;;;3.03;;
19733;SDS011;10018;51.230;7.860;2022-10-01T07:02:45;5.33;;;3.87;;
19733;SDS011;10018;51.230;7.860;2022-10-01T07:05:10;2.13;;;1.37;;
19733;SDS011;10018;51.230;7.860;2022-10-01T07:07:37;1.03;;;0.60;;
19733;SDS011;10018;51.230;7.860;2022-10-01T07:10:03;2.03;;;1.03;;
19733;SDS011;10018;51.230;7.860;2022-10-01T07:12:30;0.70;;;0.40;;
19733;SDS011;10018;51.230;7.860;2022-10-01T07:14:57;1.10;;;0.50;;
19733;SDS011;10018;51.230;7.860;2022-10-01T07:17:22;1.40;;;1.00;;
19733;SDS011;10018;51.230;7.860;2022-10-01T07:19:47;5.30;;;3.17;;
19733;SDS011;10018;51.230;7.860;2022-10-01T07:22:13;0.60;;;0.40;;
19733;SDS011;10018;51.230;7.860;2022-10-01T07:24:39;0.83;;;0.30;;
19733;SDS011;10018;51.230;7.860;2022-10-01T07:27:06;1.10;;;0.77;;
19733;SDS011;10018;51.230;7.860;2022-10-01T07:29:31;1.07;;;0.67;;
19733;SDS011;10018;51.230;7.860;2022-10-01T07:31:57;1.67;;;0.60;;
19733;SDS011;10018;51.230;7.860;2022-10-01T07:34:24;1.27;;;0.53;;
19733;SDS011;10018;51.230;7.860;2022-10-01T07:36:50;0.90;;;0.50;;
19733;SDS011;10018;51.230;7.860;2022-10-01T07:39:15;3.77;;;1.80;;
19733;SDS011;10018;51.230;7.860;2022-10-01T07:41:41;2.27;;;1.07;;
19733;SDS011;10018;51.230;7.860;2022-10-01T07:44:07;5.63;;;3.47;;
19733;SDS011;10018;51.230;7.860;2022-10-01T07:46:35;2.90;;;1.60;;
19733;SDS011;10018;51.230;7.860;2022-10-01T07:49:04;2.17;;;1.30;;
19733;SDS011;10018;51.230;7.860;2022-10-01T07:51:30;4.37;;;2.50;;
19733;SDS011;10018;51.230;7.860;2022-10-01T07:53:55;5.57;;;3.60;;
19733;SDS011;10018;51.230;7.860;2022-10-01T07:56:21;3.67;;;2.57;;
19733;SDS011;10018;51.230;7.860;2022-10-01T07:58:47;2.13;;;1.10;;
19733;SDS011;10018;51.230;7.860;2022-10-01T08:01:12;2.93;;;1.80;;
19733;SDS011;10018;51.230;7.860;2022-10-01T08:03:38;2.90;;;1.93;;
19733;SDS011;10018;51.230;7.860;2022-10-01T08:06:03;2.23;;;0.60;;
19733;SDS011;10018;51.230;7.860;2022-10-01T08:08:33;1.10;;;0.80;;
19733;SDS011;10018;51.230;7.860;2022-10-01T08:11:00;6.53;;;3.77;;
19733;SDS011;10018;51.230;7.860;2022-10-01T08:13:26;2.73;;;1.50;;
19733;SDS011;10018;51.230;7.860;2022-10-01T08:15:52;1.93;;;0.80;;
19733;SDS011;10018;51.230;7.860;2022-10-01T08:18:22;4.87;;;2.07;;
19733;SDS011;10018;51.230;7.860;2022-10-01T08:20:48;1.57;;;0.70;;
19733;SDS011;10018;51.230;7.860;2022-10-01T08:23:14;1.83;;;0.90;;
19733;SDS011;10018;51.230;7.860;2022-10-01T08:25:41;2.10;;;1.10;;
19733;SDS011;10018;51.230;7.860;2022-10-01T08:28:08;0.90;;;0.60;;
19733;SDS011;10018;51.230;7.860;2022-10-01T08:30:38;3.57;;;1.20;;
19733;SDS011;10018;51.230;7.860;2022-10-01T08:33:06;1.33;;;0.57;;
19733;SDS011;10018;51.230;7.860;2022-10-01T08:35:33;1.47;;;0.70;;
19733;SDS011;10018;51.230;7.860;2022-10-01T08:38:02;1.77;;;0.93;;
19733;SDS011;10018;51.230;7.860;2022-10-01T08:40:34;4.40;;;3.00;;
19733;SDS011;10018;51.230;7.860;2022-10-01T08:43:08;2.73;;;1.30;;
19733;SDS011;10018;51.230;7.860;2022-10-01T08:45:49;3.53;;;1.83;;
19733;SDS011;10018;51.230;7.860;2022-10-01T08:48:27;2.07;;;1.03;;
19733;SDS011;10018;51.230;7.860;2022-10-01T08:53:49;1.20;;;0.83;;
19733;SDS011;10018;51.230;7.860;2022-10-01T08:56:30;2.30;;;1.13;;
19733;SDS011;10018;51.230;7.860;2022-10-01T08:59:04;2.97;;;0.67;;
19733;SDS011;10018;51.230;7.860;2022-10-01T09:01:39;0.43;;;0.33;;
19733;SDS011;10018;51.230;7.860;2022-10-01T09:04:05;0.57;;;0.30;;
19733;SDS011;10018;51.230;7.860;2022-10-01T09:06:30;0.40;;;0.20;;
19733;SDS011;10018;51.230;7.860;2022-10-01T09:08:59;1.80;;;0.50;;
19733;SDS011;10018;51.230;7.860;2022-10-01T09:25:53;0.37;;;0.30;;
19733;SDS011;10018;51.230;7.860;2022-10-01T09:28:32;1.47;;;0.50;;
19733;SDS011;10018;51.230;7.860;2022-10-01T09:31:13;2.63;;;0.80;;
19733;SDS011;10018;51.230;7.860;2022-10-01T09:36:37;0.83;;;0.60;;
19733;SDS011;10018;51.230;7.860;2022-10-01T09:41:41;1.27;;;0.70;;
19733;SDS011;10018;51.230;7.860;2022-10-01T09:44:15;1.50;;;0.60;;
19733;SDS011;10018;51.230;7.860;2022-10-01T09:46:45;1.83;;;0.70;;
19733;SDS011;10018;51.230;7.860;2022-10-01T09:55:02;2.93;;;1.10;;
19733;SDS011;10018;51.230;7.860;2022-10-01T09:57:39;1.67;;;0.87;;
19733;SDS011;10018;51.230;7.860;2022-10-01T10:02:47;0.90;;;0.60;;
19733;SDS011;10018;51.230;7.860;2022-10-01T10:05:27;2.80;;;0.93;;
19733;SDS011;10018;51.230;7.860;2022-10-01T10:08:08;1.57;;;0.70;;
19733;SDS011;10018;51.230;7.860;2022-10-01T10:10:38;2.17;;;0.80;;
19733;SDS011;10018;51.230;7.860;2022-10-01T10:13:16;6.47;;;3.70;;
19733;SDS011;10018;51.230;7.860;2022-10-01T10:15:52;2.83;;;1.50;;
19733;SDS011;10018;51.230;7.860;2022-10-01T10:21:00;1.70;;;0.90;;
19733;SDS011;10018;51.230;7.860;2022-10-01T10:23:28;1.40;;;0.83;;
19733;SDS011;10018;51.230;7.860;2022-10-01T10:28:20;2.33;;;1.10;;
19733;SDS011;10018;51.230;7.860;2022-10-01T10:30:47;4.17;;;1.00;;
19733;SDS011;10018;51.230;7.860;2022-10-01T10:33:17;2.67;;;1.20;;
19733;SDS011;10018;51.230;7.860;2022-10-01T10:35:45;2.67;;;1.80;;
19733;SDS011;10018;51.230;7.860;2022-10-01T10:38:21;3.53;;;1.40;;
19733;SDS011;10018;51.230;7.860;2022-10-01T10:40:51;2.70;;;1.20;;
19733;SDS011;10018;51.230;7.860;2022-10-01T10:43:17;3.40;;;1.30;;
19733;SDS011;10018;51.230;7.860;2022-10-01T10:45:45;1.80;;;1.30;;
19733;SDS011;10018;51.230;7.860;2022-10-01T10:48:13;2.17;;;1.10;;
19733;SDS011;10018;51.230;7.860;2022-10-01T10:50:42;1.50;;;0.90;;
19733;SDS011;10018;51.230;7.860;2022-10-01T10:53:25;2.60;;;1.10;;
19733;SDS011;10018;51.230;7.860;2022-10-01T10:55:59;2.03;;;1.20;;
19733;SDS011;10018;51.230;7.860;2022-10-01T10:58:30;1.90;;;1.20;;
19733;SDS011;10018;51.230;7.860;2022-10-01T11:01:05;2.60;;;1.43;;
19733;SDS011;10018;51.230;7.860;2022-10-01T11:03:34;1.43;;;0.90;;
19733;SDS011;10018;51.230;7.860;2022-10-01T11:06:08;1.47;;;0.90;;
19733;SDS011;10018;51.230;7.860;2022-10-01T11:08:36;1.47;;;0.90;;
19733;SDS011;10018;51.230;7.860;2022-10-01T11:17:11;1.97;;;1.33;;
19733;SDS011;10018;51.230;7.860;2022-10-01T11:19:51;2.77;;;1.30;;
19733;SDS011;10018;51.230;7.860;2022-10-01T11:36:25;2.70;;;1.00;;
19733;SDS011;10018;51.230;7.860;2022-10-01T11:39:14;4.10;;;1.00;;
19733;SDS011;10018;51.230;7.860;2022-10-01T11:41:45;3.53;;;1.33;;
19733;SDS011;10018;51.230;7.860;2022-10-01T11:49:51;8.33;;;1.80;;
19733;SDS011;10018;51.230;7.860;2022-10-01T11:55:02;5.23;;;1.80;;
19733;SDS011;10018;51.230;7.860;2022-10-01T11:58:11;8.07;;;2.60;;
19733;SDS011;10018;51.230;7.860;2022-10-01T12:01:02;8.83;;;2.40;;
19733;SDS011;10018;51.230;7.860;2022-10-01T12:03:44;8.17;;;2.50;;
19733;SDS011;10018;51.230;7.860;2022-10-01T12:06:35;7.93;;;2.87;;
19733;SDS011;10018;51.230;7.860;2022-10-01T12:12:33;11.70;;;4.97;;
19733;SDS011;10018;51.230;7.860;2022-10-01T12:15:25;7.10;;;2.10;;
19733;SDS011;10018;51.230;7.860;2022-10-01T12:20:51;5.63;;;2.30;;
19733;SDS011;10018;51.230;7.860;2022-10-01T12:23:20;7.00;;;2.20;;
19733;SDS011;10018;51.230;7.860;2022-10-01T12:26:02;6.57;;;2.63;;
19733;SDS011;10018;51.230;7.860;2022-10-01T12:28:54;6.70;;;2.80;;
19733;SDS011;10018;51.230;7.860;2022-10-01T12:31:37;13.70;;;5.53;;
19733;SDS011;10018;51.230;7.860;2022-10-01T12:34:31;5.73;;;2.73;;
19733;SDS011;10018;51.230;7.860;2022-10-01T12:37:24;7.10;;;3.70;;
19733;SDS011;10018;51.230;7.860;2022-10-01T12:40:15;8.30;;;2.87;;
19733;SDS011;10018;51.230;7.860;2022-10-01T12:42:48;7.63;;;2.23;;
19733;SDS011;10018;51.230;7.860;2022-10-01T12:48:19;5.50;;;2.17;;
19733;SDS011;10018;51.230;7.860;2022-10-01T12:51:14;7.57;;;2.60;;
19733;SDS011;10018;51.230;7.860;2022-10-01T12:54:02;8.27;;;4.43;;
19733;SDS011;10018;51.230;7.860;2022-10-01T12:56:39;14.43;;;5.90;;
19733;SDS011;10018;51.230;7.860;2022-10-01T12:59:22;7.83;;;2.43;;
19733;SDS011;10018;51.230;7.860;2022-10-01T13:07:33;6.93;;;2.20;;
19733;SDS011;10018;51.230;7.860;2022-10-01T13:15:47;9.83;;;2.70;;
19733;SDS011;10018;51.230;7.860;2022-10-01T13:18:38;5.97;;;2.27;;
19733;SDS011;10018;51.230;7.860;2022-10-01T13:21:19;6.83;;;2.10;;
19733;SDS011;10018;51.230;7.860;2022-10-01T13:26:48;9.57;;;2.93;;
19733;SDS011;10018;51.230;7.860;2022-10-01T13:29:20;11.83;;;2.70;;
19733;SDS011;10018;51.230;7.860;2022-10-01T13:31:55;8.97;;;3.10;;
19733;SDS011;10018;51.230;7.860;2022-10-01T13:34:33;6.83;;;3.07;;
19733;SDS011;10018;51.230;7.860;2022-10-01T13:37:14;8.10;;;3.33;;
19733;SDS011;10018;51.230;7.860;2022-10-01T13:39:40;7.23;;;2.97;;
19733;SDS011;10018;51.230;7.860;2022-10-01T13:42:16;9.33;;;3.40;;
19733;SDS011;10018;51.230;7.860;2022-10-01T13:44:54;9.63;;;3.13;;
19733;SDS011;10018;51.230;7.860;2022-10-01T13:47:20;8.73;;;2.60;;
19733;SDS011;10018;51.230;7.860;2022-10-01T13:52:45;7.07;;;2.10;;
19733;SDS011;10018;51.230;7.860;2022-10-01T13:55:28;6.30;;;1.80;;
19733;SDS011;10018;51.230;7.860;2022-10-01T13:58:05;6.87;;;1.90;;
19733;SDS011;10018;51.230;7.860;2022-10-01T14:00:47;6.73;;;1.63;;
19733;SDS011;10018;51.230;7.860;2022-10-01T14:05:58;6.17;;;2.20;;
19733;SDS011;10018;51.230;7.860;2022-10-01T14:08:27;7.60;;;1.93;;
19733;SDS011;10018;51.230;7.860;2022-10-01T14:13:51;7.13;;;1.57;;
19733;SDS011;10018;51.230;7.860;2022-10-01T14:16:43;5.97;;;1.80;;
19733;SDS011;10018;51.230;7.860;2022-10-01T14:19:16;7.20;;;1.70;;
19733;SDS011;10018;51.230;7.860;2022-10-01T14:21:48;5.80;;;1.33;;
19733;SDS011;10018;51.230;7.860;2022-10-01T14:27:28;7.77;;;1.90;;
19733;SDS011;10018;51.230;7.860;2022-10-01T14:30:02;7.57;;;1.90;;
19733;SDS011;10018;51.230;7.860;2022-10-01T14:32:42;6.93;;;1.83;;
19733;SDS011;10018;51.230;7.860;2022-10-01T14:35:36;8.13;;;2.20;;
19733;SDS011;10018;51.230;7.860;2022-10-01T14:38:22;5.30;;;1.80;;
19733;SDS011;10018;51.230;7.860;2022-10-01T14:40:48;7.77;;;2.37;;
19733;SDS011;10018;51.230;7.860;2022-10-01T14:45:48;11.93;;;3.37;;
19733;SDS011;10018;51.230;7.860;2022-10-01T14:48:17;11.73;;;2.57;;
19733;SDS011;10018;51.230;7.860;2022-10-01T14:50:44;9.73;;;2.97;;
19733;SDS011;10018;51.230;7.860;2022-10-01T14:53:15;10.10;;;3.00;;
19733;SDS011;10018;51.230;7.860;2022-10-01T14:55:42;8.93;;;2.80;;
19733;SDS011;10018;51.230;7.860;2022-10-01T14:58:19;8.63;;;2.67;;
19733;SDS011;10018;51.230;7.860;2022-10-01T15:01:00;10.73;;;3.00;;
19733;SDS011;10018;51.230;7.860;2022-10-01T15:03:33;13.23;;;2.53;;
19733;SDS011;10018;51.230;7.860;2022-10-01T15:06:03;7.20;;;2.33;;
19733;SDS011;10018;51.230;7.860;2022-10-01T15:08:46;7.70;;;2.53;;
19733;SDS011;10018;51.230;7.860;2022-10-01T15:11:17;9.00;;;2.60;;
19733;SDS011;10018;51.230;7.860;2022-10-01T15:13:46;16.47;;;9.07;;
19733;SDS011;10018;51.230;7.860;2022-10-01T15:16:19;12.83;;;3.43;;
19733;SDS011;10018;51.230;7.860;2022-10-01T15:18:48;12.87;;;5.57;;
19733;SDS011;10018;51.230;7.860;2022-10-01T15:21:39;8.37;;;2.70;;
19733;SDS011;10018;51.230;7.860;2022-10-01T15:24:21;9.60;;;3.40;;
19733;SDS011;10018;51.230;7.860;2022-10-01T15:26:48;13.80;;;7.80;;
19733;SDS011;10018;51.230;7.860;2022-10-01T15:29:16;8.00;;;2.33;;
19733;SDS011;10018;51.230;7.860;2022-10-01T15:31:42;8.23;;;2.13;;
19733;SDS011;10018;51.230;7.860;2022-10-01T15:34:11;9.40;;;3.00;;
19733;SDS011;10018;51.230;7.860;2022-10-01T15:36:38;7.23;;;2.00;;
19733;SDS011;10018;51.230;7.860;2022-10-01T15:41:53;10.27;;;3.43;;
19733;SDS011;10018;51.230;7.860;2022-10-01T15:44:43;9.03;;;1.70;;
19733;SDS011;10018;51.230;7.860;2022-10-01T15:55:22;8.70;;;2.37;;
19733;SDS011;10018;51.230;7.860;2022-10-01T15:57:54;6.87;;;2.03;;
19733;SDS011;10018;51.230;7.860;2022-10-01T16:00:53;11.07;;;2.77;;
19733;SDS011;10018;51.230;7.860;2022-10-01T16:03:30;9.93;;;2.17;;
19733;SDS011;10018;51.230;7.860;2022-10-01T16:05:56;8.00;;;2.40;;
19733;SDS011;10018;51.230;7.860;2022-10-01T16:08:26;9.07;;;2.53;;
19733;SDS011;10018;51.230;7.860;2022-10-01T16:13:41;6.90;;;2.27;;
19733;SDS011;10018;51.230;7.860;2022-10-01T16:18:37;11.23;;;3.63;;
19733;SDS011;10018;51.230;7.860;2022-10-01T16:21:07;9.60;;;2.97;;
19733;SDS011;10018;51.230;7.860;2022-10-01T16:23:35;13.43;;;2.63;;
19733;SDS011;10018;51.230;7.860;2022-10-01T16:26:04;6.87;;;2.30;;
19733;SDS011;10018;51.230;7.860;2022-10-01T16:28:52;11.47;;;2.30;;
19733;SDS011;10018;51.230;7.860;2022-10-01T16:31:19;7.53;;;2.50;;
19733;SDS011;10018;51.230;7.860;2022-10-01T16:33:45;9.23;;;2.47;;
19733;SDS011;10018;51.230;7.860;2022-10-01T16:36:14;14.17;;;2.43;;
19733;SDS011;10018;51.230;7.860;2022-10-01T16:38:44;8.57;;;2.40;;
19733;SDS011;10018;51.230;7.860;2022-10-01T16:41:15;11.60;;;2.50;;
19733;SDS011;10018;51.230;7.860;2022-10-01T16:43:50;10.53;;;2.60;;
19733;SDS011;10018;51.230;7.860;2022-10-01T16:46:18;10.00;;;2.17;;
19733;SDS011;10018;51.230;7.860;2022-10-01T16:48:44;14.33;;;3.20;;
19733;SDS011;10018;51.230;7.860;2022-10-01T16:51:12;10.30;;;3.13;;
19733;SDS011;10018;51.230;7.860;2022-10-01T16:53:37;12.87;;;2.60;;
19733;SDS011;10018;51.230;7.860;2022-10-01T16:56:06;9.97;;;2.27;;
19733;SDS011;10018;51.230;7.860;2022-10-01T16:58:32;13.70;;;2.73;;
19733;SDS011;10018;51.230;7.860;2022-10-01T17:00:58;14.13;;;3.83;;
19733;SDS011;10018;51.230;7.860;2022-10-01T17:03:24;9.77;;;3.30;;
19733;SDS011;10018;51.230;7.860;2022-10-01T17:05:50;15.17;;;3.00;;
19733;SDS011;10018;51.230;7.860;2022-10-01T17:08:16;17.40;;;3.57;;
19733;SDS011;10018;51.230;7.860;2022-10-01T17:10:52;11.27;;;3.30;;
19733;SDS011;10018;51.230;7.860;2022-10-01T17:13:22;12.57;;;3.20;;
19733;SDS011;10018;51.230;7.860;2022-10-01T17:15:49;13.43;;;3.73;;
19733;SDS011;10018;51.230;7.860;2022-10-01T17:18:15;12.07;;;3.83;;
19733;SDS011;10018;51.230;7.860;2022-10-01T17:20:41;10.83;;;3.40;;
19733;SDS011;10018;51.230;7.860;2022-10-01T17:23:09;10.80;;;3.87;;